createdAt,value
2024-02-24T00:01:35.383Z,9.22
2024-02-24T00:04:48.627Z,9.17
2024-02-24T00:07:54.509Z,9.16
2024-02-24T00:11:01.893Z,9.21
2024-02-24T00:14:23.741Z,9.20
2024-02-24T00:17:30.862Z,9.21
2024-02-24T00:20:37.720Z,9.21
2024-02-24T00:23:42.581Z,9.18
2024-02-24T00:26:49.777Z,9.20
2024-02-24T00:29:53.421Z,9.23
2024-02-24T00:32:59.351Z,9.28
2024-02-24T00:36:03.175Z,9.23
2024-02-24T00:39:07.399Z,9.19
2024-02-24T00:42:12.453Z,9.11
2024-02-24T00:45:19.950Z,9.08
2024-02-24T00:48:24.294Z,9.09
2024-02-24T00:51:27.571Z,9.06
2024-02-24T00:54:36.054Z,9.03
2024-02-24T00:57:48.956Z,8.97
2024-02-24T01:00:54.690Z,8.95
2024-02-24T01:03:59.445Z,8.90
2024-02-24T01:07:03.358Z,8.92
2024-02-24T01:10:06.601Z,8.90
2024-02-24T01:13:10.593Z,8.95
2024-02-24T01:16:14.844Z,8.88
2024-02-24T01:19:28.822Z,8.86
2024-02-24T01:22:35.565Z,8.95
2024-02-24T01:25:53.704Z,8.98
2024-02-24T01:29:19.574Z,9.04
2024-02-24T01:32:28.056Z,8.95
2024-02-24T01:35:56.546Z,8.90
2024-02-24T01:39:15.632Z,8.87
2024-02-24T01:42:22.018Z,8.90
2024-02-24T01:45:24.969Z,8.90
2024-02-24T01:48:27.620Z,8.87
2024-02-24T01:51:32.552Z,8.84
2024-02-24T01:54:37.681Z,8.82
2024-02-24T01:57:43.654Z,8.86
2024-02-24T02:00:50.448Z,8.82
2024-02-24T02:03:56.962Z,8.82
2024-02-24T02:07:30.262Z,8.86
2024-02-24T02:10:48.783Z,8.88
2024-02-24T02:13:52.172Z,8.86
2024-02-24T02:16:59.202Z,8.85
2024-02-24T02:20:05.702Z,8.86
2024-02-24T02:23:15.572Z,8.83
2024-02-24T02:26:20.806Z,8.85
2024-02-24T02:29:24.187Z,8.81
2024-02-24T02:32:33.725Z,8.84
2024-02-24T02:35:36.978Z,8.81
2024-02-24T02:38:45.244Z,8.81
2024-02-24T02:42:00.819Z,8.81
2024-02-24T02:45:10.971Z,8.82
2024-02-24T02:48:23.530Z,8.80
2024-02-24T02:54:40.105Z,8.60
2024-02-24T02:57:43.218Z,8.62
2024-02-24T03:00:58.571Z,8.63
2024-02-24T03:04:03.218Z,8.54
2024-02-24T03:07:11.507Z,8.50
2024-02-24T03:10:20.348Z,8.50
2024-02-24T03:13:27.267Z,8.57
2024-02-24T03:16:30.748Z,8.54
2024-02-24T03:19:35.241Z,8.48
2024-02-24T03:22:43.359Z,8.57
2024-02-24T03:25:52.518Z,8.57
2024-02-24T03:29:08.526Z,8.49
2024-02-24T03:32:12.352Z,8.45
2024-02-24T03:35:19.320Z,8.42
2024-02-24T03:38:28.291Z,8.45
2024-02-24T03:41:35.060Z,8.45
2024-02-24T03:44:38.595Z,8.37
2024-02-24T03:47:42.076Z,8.36
2024-02-24T03:50:46.134Z,8.38
2024-02-24T03:53:49.407Z,8.37
2024-02-24T03:56:55.359Z,8.48
2024-02-24T03:59:58.101Z,8.43
2024-02-24T04:03:04.856Z,8.44
2024-02-24T04:06:09.954Z,8.42
2024-02-24T04:09:13.100Z,8.35
2024-02-24T04:12:16.084Z,8.25
2024-02-24T04:15:22.020Z,8.23
2024-02-24T04:18:24.742Z,8.27
2024-02-24T04:21:27.943Z,8.24
2024-02-24T04:24:30.432Z,8.28
2024-02-24T04:27:32.770Z,8.30
2024-02-24T04:30:36.529Z,8.22
2024-02-24T04:33:39.332Z,8.19
2024-02-24T04:36:42.761Z,8.17
2024-02-24T04:39:45.157Z,8.24
2024-02-24T04:42:47.739Z,8.31
2024-02-24T04:45:50.413Z,8.26
2024-02-24T04:48:53.372Z,8.19
2024-02-24T04:51:56.055Z,8.26
2024-02-24T04:54:59.339Z,8.28
2024-02-24T04:58:01.876Z,8.25
2024-02-24T05:01:04.511Z,8.20
2024-02-24T05:04:07.207Z,8.12
2024-02-24T05:07:09.995Z,8.09
2024-02-24T05:10:12.763Z,8.00
2024-02-24T05:13:15.196Z,7.98
2024-02-24T05:16:18.135Z,7.94
2024-02-24T05:19:20.767Z,7.90
2024-02-24T05:22:23.533Z,7.85
2024-02-24T05:25:26.053Z,7.78
2024-02-24T05:28:29.520Z,7.76
2024-02-24T05:31:32.297Z,7.86
2024-02-24T05:34:34.748Z,7.87
2024-02-24T05:37:37.523Z,7.84
2024-02-24T05:40:39.732Z,7.81
2024-02-24T05:43:42.525Z,7.76
2024-02-24T05:46:44.869Z,7.73
2024-02-24T05:49:47.892Z,7.69
2024-02-24T05:52:51.713Z,7.68
2024-02-24T05:55:54.365Z,7.73
2024-02-24T05:58:57.096Z,7.77
2024-02-24T06:01:59.531Z,7.75
2024-02-24T06:05:01.801Z,7.77
2024-02-24T06:08:04.818Z,7.67
2024-02-24T06:11:09.045Z,7.62
2024-02-24T06:14:12.047Z,7.66
2024-02-24T06:17:15.147Z,7.63
2024-02-24T06:20:17.793Z,7.61
2024-02-24T06:23:20.779Z,7.68
2024-02-24T06:26:23.630Z,7.83
2024-02-24T06:29:26.894Z,7.85
2024-02-24T06:32:30.974Z,7.84
2024-02-24T06:35:34.115Z,7.88
2024-02-24T06:38:37.274Z,7.92
2024-02-24T06:41:40.258Z,8.02
2024-02-24T06:44:43.937Z,8.02
2024-02-24T06:47:46.976Z,8.05
2024-02-24T06:50:50.361Z,8.07
2024-02-24T06:53:57.855Z,8.12
2024-02-24T06:57:01.584Z,8.11
2024-02-24T07:00:04.300Z,8.09
2024-02-24T07:03:06.232Z,8.09
2024-02-24T07:06:09.228Z,8.15
2024-02-24T07:09:11.511Z,8.26
2024-02-24T07:12:14.570Z,8.41
2024-02-24T07:15:17.193Z,8.52
2024-02-24T07:18:20.663Z,8.53
2024-02-24T07:21:24.028Z,8.62
2024-02-24T07:24:26.992Z,8.63
2024-02-24T07:27:30.242Z,8.66
2024-02-24T07:30:33.282Z,8.80
2024-02-24T07:33:35.926Z,8.87
2024-02-24T07:36:43.252Z,9.04
2024-02-24T07:39:46.055Z,9.15
2024-02-24T07:42:52.440Z,9.19
2024-02-24T07:45:56.212Z,9.22
2024-02-24T07:49:08.147Z,9.33
2024-02-24T07:52:13.368Z,9.50
2024-02-24T07:55:16.760Z,9.75
2024-02-24T07:58:19.239Z,9.84
2024-02-24T08:01:22.501Z,10.05
2024-02-24T08:04:34.998Z,10.26
2024-02-24T08:11:14.746Z,10.84
2024-02-24T08:14:23.515Z,11.06
2024-02-24T08:17:27.021Z,11.24
2024-02-24T08:20:30.975Z,11.32
2024-02-24T08:23:35.978Z,11.59
2024-02-24T08:26:45.733Z,11.69
2024-02-24T08:30:04.126Z,11.96
2024-02-24T08:33:12.671Z,12.08
2024-02-24T08:36:28.563Z,12.10
2024-02-24T08:39:32.675Z,12.26
2024-02-24T08:42:36.176Z,12.43
2024-02-24T08:45:47.533Z,12.63
2024-02-24T08:48:51.331Z,12.68
2024-02-24T08:52:04.972Z,12.69
2024-02-24T08:55:10.658Z,12.64
2024-02-24T08:58:17.939Z,12.64
2024-02-24T09:01:21.084Z,12.57
2024-02-24T09:04:23.912Z,12.49
2024-02-24T09:07:35.955Z,12.50
2024-02-24T09:10:39.359Z,12.44
2024-02-24T09:13:42.623Z,12.34
2024-02-24T09:16:48.897Z,12.46
2024-02-24T09:19:57.919Z,12.62
2024-02-24T09:23:07.470Z,12.87
2024-02-24T09:26:19.916Z,13.11
2024-02-24T09:29:25.862Z,13.26
2024-02-24T09:32:30.126Z,13.38
2024-02-24T09:35:42.632Z,13.59
2024-02-24T09:38:45.599Z,13.82
2024-02-24T09:41:49.751Z,13.92
2024-02-24T09:45:04.050Z,13.94
2024-02-24T09:48:08.320Z,13.92
2024-02-24T09:51:10.740Z,14.00
2024-02-24T09:54:14.339Z,14.01
2024-02-24T09:57:24.192Z,13.96
2024-02-24T10:00:28.395Z,13.80
2024-02-24T10:03:33.523Z,13.87
2024-02-24T10:06:40.081Z,13.92
2024-02-24T10:09:43.250Z,13.99
2024-02-24T10:12:59.660Z,13.93
2024-02-24T10:16:15.011Z,13.90
2024-02-24T10:19:17.598Z,13.82
2024-02-24T10:22:20.688Z,13.91
2024-02-24T10:25:40.562Z,14.09
2024-02-24T10:28:44.688Z,14.10
2024-02-24T10:31:48.803Z,14.17
2024-02-24T10:34:54.626Z,14.28
2024-02-24T10:38:11.555Z,14.34
2024-02-24T10:41:27.964Z,14.44
2024-02-24T10:44:36.120Z,14.49
2024-02-24T10:47:39.709Z,14.54
2024-02-24T10:50:52.485Z,14.77
2024-02-24T10:53:57.163Z,14.71
2024-02-24T10:57:08.070Z,14.75
2024-02-24T11:00:30.269Z,14.82
2024-02-24T11:03:49.258Z,14.92
2024-02-24T11:06:59.078Z,14.92
2024-02-24T11:10:35.595Z,14.83
2024-02-24T11:13:52.315Z,14.83
2024-02-24T11:17:06.648Z,14.70
2024-02-24T11:20:09.525Z,14.73
2024-02-24T11:23:23.088Z,14.77
2024-02-24T11:26:28.797Z,14.82
2024-02-24T11:29:39.808Z,14.90
2024-02-24T11:32:42.148Z,14.87
2024-02-24T11:35:44.866Z,14.87
2024-02-24T11:38:53.955Z,14.92
2024-02-24T11:42:06.618Z,14.82
2024-02-24T11:45:15.545Z,14.86
2024-02-24T11:48:23.513Z,14.85
2024-02-24T11:51:32.691Z,14.84
2024-02-24T11:54:50.320Z,14.79
2024-02-24T11:57:53.121Z,14.73
2024-02-24T12:00:59.685Z,14.73
2024-02-24T12:04:03.665Z,14.72
2024-02-24T12:07:08.991Z,14.75
2024-02-24T12:10:27.217Z,14.80
2024-02-24T12:13:30.182Z,14.74
2024-02-24T12:16:35.816Z,14.80
2024-02-24T12:19:40.027Z,14.90
2024-02-24T12:22:43.796Z,14.80
2024-02-24T12:25:58.730Z,14.84
2024-02-24T12:29:01.576Z,14.88
2024-02-24T12:32:04.005Z,14.89
2024-02-24T12:35:13.758Z,14.85
2024-02-24T12:38:22.099Z,14.84
2024-02-24T12:41:24.770Z,14.93
2024-02-24T12:44:36.357Z,15.07
2024-02-24T12:47:39.822Z,15.04
2024-02-24T12:50:43.262Z,14.93
2024-02-24T12:53:46.907Z,14.92
2024-02-24T12:56:49.797Z,14.93
2024-02-24T12:59:53.696Z,14.98
2024-02-24T13:03:03.689Z,14.96
2024-02-24T13:06:12.028Z,14.93
2024-02-24T13:09:17.222Z,14.94
2024-02-24T13:12:20.163Z,14.84
2024-02-24T13:15:28.399Z,14.79
2024-02-24T13:18:35.539Z,14.75
2024-02-24T13:21:38.860Z,14.49
2024-02-24T13:24:43.708Z,14.51
2024-02-24T13:27:48.538Z,14.52
2024-02-24T13:30:51.213Z,14.69
2024-02-24T13:33:58.662Z,14.65
2024-02-24T13:37:01.503Z,14.60
2024-02-24T13:40:09.207Z,14.59
2024-02-24T13:43:13.767Z,14.60
2024-02-24T13:46:17.149Z,14.42
2024-02-24T13:49:23.935Z,14.45
2024-02-24T13:52:27.801Z,14.45
2024-02-24T13:55:30.072Z,14.56
2024-02-24T13:58:33.178Z,14.45
2024-02-24T14:01:41.820Z,14.42
2024-02-24T14:04:47.210Z,14.22
2024-02-24T14:07:50.145Z,14.29
2024-02-24T14:10:53.123Z,14.34
2024-02-24T14:13:55.849Z,14.39
2024-02-24T14:17:02.401Z,14.41
2024-02-24T14:20:19.938Z,14.39
2024-02-24T14:23:31.471Z,14.43
2024-02-24T14:26:34.649Z,14.37
2024-02-24T14:29:37.273Z,14.34
2024-02-24T14:32:39.686Z,14.26
2024-02-24T14:35:45.603Z,14.27
2024-02-24T14:38:54.786Z,14.19
2024-02-24T14:41:57.612Z,14.18
2024-02-24T14:45:01.388Z,14.14
2024-02-24T14:48:14.676Z,14.04
2024-02-24T14:51:18.837Z,13.98
2024-02-24T14:54:43.929Z,13.97
2024-02-24T14:57:56.889Z,13.94
2024-02-24T15:01:00.717Z,13.86
2024-02-24T15:04:20.425Z,13.77
2024-02-24T15:07:24.566Z,13.80
2024-02-24T15:10:28.584Z,13.72
2024-02-24T15:13:38.694Z,13.70
2024-02-24T15:16:50.545Z,13.73
2024-02-24T15:19:54.136Z,13.68
2024-02-24T15:23:11.867Z,13.56
2024-02-24T15:26:15.500Z,13.51
2024-02-24T15:29:25.451Z,13.46
2024-02-24T15:32:37.430Z,13.36
2024-02-24T15:35:59.058Z,13.28
2024-02-24T15:39:03.175Z,13.25
2024-02-24T15:42:11.637Z,13.22
2024-02-24T15:45:15.314Z,13.21
2024-02-24T15:48:18.691Z,13.17
2024-02-24T15:51:24.597Z,13.13
2024-02-24T15:54:31.771Z,13.11
2024-02-24T15:57:39.528Z,13.05
2024-02-24T16:00:58.080Z,12.97
2024-02-24T16:07:49.966Z,12.83
2024-02-24T16:11:01.499Z,12.78
2024-02-24T16:14:08.806Z,12.69
2024-02-24T16:17:12.287Z,12.62
2024-02-24T16:23:38.209Z,12.55
2024-02-24T16:26:41.694Z,12.54
2024-02-24T16:29:44.630Z,12.46
2024-02-24T16:32:48.983Z,12.41
2024-02-24T16:35:52.746Z,12.37
2024-02-24T16:38:57.617Z,12.36
2024-02-24T16:42:12.958Z,12.37
2024-02-24T16:45:16.335Z,12.30
2024-02-24T16:48:24.170Z,12.22
2024-02-24T16:52:19.144Z,12.23
2024-02-24T16:55:23.121Z,12.23
2024-02-24T16:58:27.711Z,12.25
2024-02-24T17:01:34.087Z,12.21
2024-02-24T17:04:39.561Z,12.11
2024-02-24T17:07:42.211Z,12.06
2024-02-24T17:10:50.785Z,12.09
2024-02-24T17:14:00.074Z,12.07
2024-02-24T17:21:28.755Z,12.02
2024-02-24T17:24:33.520Z,12.01
2024-02-24T17:27:41.551Z,11.98
2024-02-24T17:31:11.573Z,11.93
2024-02-24T17:38:05.699Z,11.77
2024-02-24T17:41:15.044Z,11.66
2024-02-24T17:44:19.974Z,11.55
2024-02-24T17:47:37.020Z,11.67
2024-02-24T17:50:50.772Z,11.64
2024-02-24T17:54:10.744Z,11.67
2024-02-24T17:57:21.383Z,11.60
2024-02-24T18:00:29.189Z,11.44
2024-02-24T18:03:38.935Z,11.35
2024-02-24T18:07:04.487Z,11.33
2024-02-24T18:10:14.939Z,11.29
2024-02-24T18:13:17.913Z,11.21
2024-02-24T18:16:25.164Z,11.18
2024-02-24T18:19:28.352Z,11.20
2024-02-24T18:22:44.856Z,11.16
2024-02-24T18:25:50.159Z,11.21
2024-02-24T18:29:18.455Z,11.11
2024-02-24T18:32:42.062Z,11.09
2024-02-24T18:35:54.162Z,11.10
2024-02-24T18:38:56.892Z,11.09
2024-02-24T18:42:21.160Z,11.07
2024-02-24T18:48:57.721Z,11.01
2024-02-24T18:52:10.305Z,10.94
2024-02-24T18:55:15.860Z,10.86
2024-02-24T18:58:54.033Z,10.78
2024-02-24T19:01:57.693Z,10.68
2024-02-24T19:05:09.921Z,10.58
2024-02-24T19:08:23.631Z,10.54
2024-02-24T19:11:52.450Z,10.49
2024-02-24T19:14:58.615Z,10.45
2024-02-24T19:18:35.122Z,10.35
2024-02-24T19:21:55.467Z,10.28
2024-02-24T19:24:58.745Z,10.17
2024-02-24T19:31:31.243Z,9.97
2024-02-24T19:34:34.018Z,9.97
2024-02-24T19:37:37.619Z,10.04
2024-02-24T19:40:45.061Z,10.00
2024-02-24T19:43:52.769Z,9.98
2024-02-24T19:47:04.306Z,9.98
2024-02-24T19:50:07.193Z,10.01
2024-02-24T19:56:31.898Z,9.98
2024-02-24T19:59:43.356Z,10.02
2024-02-24T20:03:10.812Z,10.11
2024-02-24T20:06:13.562Z,10.03
2024-02-24T20:09:18.380Z,9.96
2024-02-24T20:12:32.180Z,9.92
2024-02-24T20:15:35.336Z,9.93
2024-02-24T20:18:39.501Z,9.95
2024-02-24T20:21:42.351Z,9.93
2024-02-24T20:24:50.195Z,9.96
2024-02-24T20:28:10.218Z,9.91
2024-02-24T20:31:14.545Z,9.85
2024-02-24T20:34:17.648Z,9.78
2024-02-24T20:37:19.971Z,9.72
2024-02-24T20:40:48.434Z,9.67
2024-02-24T20:44:02.441Z,9.72
2024-02-24T20:47:05.700Z,9.58
2024-02-24T20:50:13.687Z,9.54
2024-02-24T20:53:17.516Z,9.50
2024-02-24T20:56:22.751Z,9.46
2024-02-24T20:59:33.577Z,9.37
2024-02-24T21:02:46.258Z,9.38
2024-02-24T21:05:58.533Z,9.43
2024-02-24T21:09:02.119Z,9.43
2024-02-24T21:12:38.228Z,9.51
2024-02-24T21:15:41.855Z,9.44
2024-02-24T21:18:44.957Z,9.40
2024-02-24T21:22:29.555Z,9.39
2024-02-24T21:25:33.262Z,9.34
2024-02-24T21:28:55.319Z,9.35
2024-02-24T21:32:02.828Z,9.28
2024-02-24T21:35:07.064Z,9.21
2024-02-24T21:38:18.316Z,9.12
2024-02-24T21:41:24.894Z,9.07
2024-02-24T21:44:29.738Z,9.14
2024-02-24T21:47:32.753Z,9.10
2024-02-24T21:50:49.071Z,9.21
2024-02-24T21:53:51.955Z,9.24
2024-02-24T21:56:55.952Z,9.31
2024-02-24T21:59:59.182Z,9.42
2024-02-24T22:03:18.743Z,9.42
2024-02-24T22:06:22.190Z,9.44
2024-02-24T22:16:43.063Z,9.10
2024-02-24T22:19:47.113Z,9.01
2024-02-24T22:22:49.990Z,8.91
2024-02-24T22:26:35.303Z,8.85
2024-02-24T22:29:45.168Z,8.83
2024-02-24T22:32:57.036Z,8.94
2024-02-24T22:36:26.892Z,8.96
2024-02-24T22:39:38.332Z,8.94
2024-02-24T22:42:47.461Z,8.91
2024-02-24T22:45:50.091Z,8.87
2024-02-24T22:49:03.413Z,8.88
2024-02-24T22:52:07.982Z,8.85
2024-02-24T22:55:16.179Z,8.79
2024-02-24T22:58:26.239Z,8.73
2024-02-24T23:01:42.344Z,8.74
2024-02-24T23:04:46.181Z,8.75
2024-02-24T23:07:48.794Z,8.68
